createdAt,value
2023-05-12T00:00:49.635Z,8.82
2023-05-12T00:04:51.739Z,8.05
2023-05-12T00:08:53.780Z,9.80
2023-05-12T00:12:55.866Z,7.47
2023-05-12T00:16:57.975Z,8.45
2023-05-12T00:21:00.173Z,7.10
2023-05-12T00:25:02.190Z,13.75
2023-05-12T00:29:04.202Z,7.95
2023-05-12T00:33:06.670Z,6.68
2023-05-12T00:37:08.838Z,6.80
2023-05-12T00:41:11.060Z,9.48
2023-05-12T00:45:13.201Z,10.43
2023-05-12T00:49:15.425Z,7.57
2023-05-12T00:53:17.507Z,9.60
2023-05-12T00:57:21.790Z,10.45
2023-05-12T01:01:23.986Z,7.55
2023-05-12T01:05:45.366Z,7.28
2023-05-12T01:09:47.513Z,10.02
2023-05-12T01:13:50.045Z,9.68
2023-05-12T01:17:57.554Z,6.05
2023-05-12T01:22:00.384Z,8.82
2023-05-12T01:26:09.902Z,12.27
2023-05-12T01:30:18.029Z,11.73
2023-05-12T01:34:20.470Z,7.53
2023-05-12T01:38:26.585Z,7.72
2023-05-12T01:42:28.628Z,7.40
2023-05-12T01:46:30.888Z,7.82
2023-05-12T01:50:35.049Z,11.02
2023-05-12T01:54:39.839Z,7.55
2023-05-12T01:58:41.821Z,9.98
2023-05-12T02:02:44.448Z,9.00
2023-05-12T02:06:48.091Z,12.55
2023-05-12T02:10:50.204Z,15.00
2023-05-12T02:14:52.368Z,7.50
2023-05-12T02:18:54.680Z,10.80
2023-05-12T02:22:57.002Z,8.60
2023-05-12T02:26:59.053Z,6.72
2023-05-12T02:31:01.117Z,9.82
2023-05-12T02:35:05.363Z,9.82
2023-05-12T02:39:08.021Z,9.25
2023-05-12T02:43:11.135Z,7.43
2023-05-12T02:47:13.214Z,7.10
2023-05-12T02:51:15.523Z,12.23
2023-05-12T02:55:17.692Z,9.63
2023-05-12T02:59:19.728Z,7.82
2023-05-12T03:03:21.819Z,7.10
2023-05-12T03:07:23.992Z,8.07
2023-05-12T03:11:26.337Z,10.93
2023-05-12T03:15:28.958Z,8.02
2023-05-12T03:19:31.343Z,8.93
2023-05-12T03:23:33.385Z,4.97
2023-05-12T03:27:36.056Z,6.28
2023-05-12T03:31:38.220Z,9.18
2023-05-12T03:35:40.226Z,10.43
2023-05-12T03:39:42.317Z,9.07
2023-05-12T03:43:44.866Z,11.00
2023-05-12T03:47:47.692Z,14.75
2023-05-12T03:51:49.758Z,13.55
2023-05-12T03:55:53.896Z,9.70
2023-05-12T03:59:56.057Z,7.85
2023-05-12T04:03:58.267Z,12.63
2023-05-12T04:07:59.972Z,5.85
2023-05-12T04:12:01.945Z,6.43
2023-05-12T04:16:04.569Z,6.25
2023-05-12T04:20:07.758Z,7.03
2023-05-12T04:24:10.563Z,7.82
2023-05-12T04:28:13.652Z,9.60
2023-05-12T04:32:16.240Z,9.55
2023-05-12T04:36:18.645Z,8.15
2023-05-12T04:40:21.292Z,8.23
2023-05-12T04:44:23.643Z,10.13
2023-05-12T04:48:27.063Z,9.93
2023-05-12T04:52:29.158Z,17.38
2023-05-12T04:56:31.509Z,9.77
2023-05-12T05:00:34.322Z,7.30
2023-05-12T05:04:36.524Z,6.88
2023-05-12T05:08:38.895Z,7.20
2023-05-12T05:12:41.052Z,10.90
2023-05-12T05:16:44.244Z,10.05
2023-05-12T05:20:54.419Z,6.35
2023-05-12T05:25:00.245Z,8.68
2023-05-12T05:29:02.554Z,7.07
2023-05-12T05:33:04.482Z,7.75
2023-05-12T05:37:06.680Z,5.20
2023-05-12T05:41:09.837Z,10.73
2023-05-12T05:45:12.016Z,9.40
2023-05-12T05:49:14.646Z,11.50
2023-05-12T05:53:18.449Z,8.98
2023-05-12T05:57:21.330Z,7.85
2023-05-12T06:01:24.122Z,8.60
2023-05-12T06:05:26.357Z,9.35
2023-05-12T06:09:28.471Z,9.38
2023-05-12T06:13:30.633Z,7.30
2023-05-12T06:17:32.935Z,9.77
2023-05-12T06:21:34.989Z,9.68
2023-05-12T06:25:36.952Z,7.10
2023-05-12T06:29:39.112Z,7.35
2023-05-12T06:33:41.126Z,3.97
2023-05-12T06:37:49.310Z,5.80
2023-05-12T06:41:51.365Z,8.50
2023-05-12T06:45:57.033Z,7.72
2023-05-12T06:49:59.196Z,5.60
2023-05-12T06:54:02.170Z,8.40
2023-05-12T06:58:06.304Z,10.93
2023-05-12T07:02:08.305Z,4.45
2023-05-12T07:06:11.131Z,5.32
2023-05-12T07:10:13.232Z,6.35
2023-05-12T07:14:15.200Z,2.75
2023-05-12T07:18:17.345Z,6.57
2023-05-12T07:22:22.401Z,8.93
2023-05-12T07:26:24.442Z,4.97
2023-05-12T07:30:26.111Z,6.25
2023-05-12T07:34:28.119Z,4.13
2023-05-12T07:38:30.318Z,6.15
2023-05-12T07:42:31.988Z,10.48
2023-05-12T07:46:33.998Z,7.80
2023-05-12T07:50:36.072Z,12.85
2023-05-12T07:54:38.288Z,7.50
2023-05-12T07:58:40.338Z,7.65
2023-05-12T08:02:43.307Z,11.63
2023-05-12T08:06:45.459Z,9.15
2023-05-12T08:10:47.473Z,18.08
2023-05-12T08:14:49.545Z,7.38
2023-05-12T08:18:52.265Z,8.05
2023-05-12T08:22:54.431Z,9.45
2023-05-12T08:26:56.481Z,5.45
2023-05-12T08:30:59.021Z,4.32
2023-05-12T08:35:01.594Z,13.30
2023-05-12T08:39:04.283Z,4.03
2023-05-12T08:43:30.135Z,3.33
2023-05-12T08:47:34.221Z,9.45
2023-05-12T08:51:38.037Z,10.30
2023-05-12T08:55:46.210Z,7.55
2023-05-12T08:59:59.190Z,7.35
2023-05-12T09:04:01.262Z,13.55
2023-05-12T09:08:03.535Z,6.22
2023-05-12T09:12:10.248Z,6.18
2023-05-12T09:16:13.562Z,6.95
2023-05-12T09:20:27.949Z,13.00
2023-05-12T09:24:37.709Z,6.45
2023-05-12T09:28:39.759Z,11.75
2023-05-12T09:32:42.283Z,3.47
2023-05-12T09:36:46.130Z,3.55
2023-05-12T09:40:48.106Z,3.00
2023-05-12T09:44:50.376Z,6.80
2023-05-12T09:48:55.759Z,4.28
2023-05-12T09:53:01.363Z,9.30
2023-05-12T09:57:07.540Z,8.23
2023-05-12T10:01:23.174Z,9.63
2023-05-12T10:05:26.476Z,5.28
2023-05-12T10:09:39.246Z,6.28
2023-05-12T10:13:41.808Z,5.80
2023-05-12T10:17:44.419Z,6.60
2023-05-12T10:21:46.993Z,6.65
2023-05-12T10:25:49.610Z,5.55
2023-05-12T10:29:53.621Z,9.77
2023-05-12T10:33:59.583Z,6.97
2023-05-12T10:38:06.130Z,8.90
2023-05-12T10:42:09.699Z,6.88
2023-05-12T10:46:22.640Z,14.98
2023-05-12T10:50:28.479Z,9.73
2023-05-12T10:54:39.597Z,6.10
2023-05-12T10:59:21.658Z,6.13
2023-05-12T11:03:25.747Z,9.82
2023-05-12T11:07:30.835Z,9.13
2023-05-12T11:11:34.233Z,5.35
2023-05-12T11:15:36.493Z,7.75
2023-05-12T11:19:39.568Z,8.70
2023-05-12T11:23:41.736Z,6.47
2023-05-12T11:27:51.523Z,6.93
2023-05-12T11:31:53.526Z,6.97
2023-05-12T11:35:55.808Z,6.80
2023-05-12T11:39:57.896Z,6.63
2023-05-12T11:43:59.991Z,4.60
2023-05-12T11:48:13.856Z,7.63
2023-05-12T11:52:17.451Z,9.88
2023-05-12T11:56:21.951Z,10.52
2023-05-12T12:00:28.873Z,10.52
2023-05-12T12:04:41.952Z,9.10
2023-05-12T12:09:10.122Z,8.10
2023-05-12T12:13:13.492Z,7.50
2023-05-12T12:17:15.572Z,10.38
2023-05-12T12:21:19.025Z,5.53
2023-05-12T12:25:22.206Z,5.07
2023-05-12T12:29:26.166Z,11.75
2023-05-12T12:33:28.169Z,5.30
2023-05-12T12:37:30.260Z,6.00
2023-05-12T12:41:32.706Z,5.35
2023-05-12T12:45:34.757Z,4.45
2023-05-12T12:49:36.846Z,7.43
2023-05-12T12:53:38.968Z,12.32
2023-05-12T12:57:40.959Z,3.83
2023-05-12T13:01:43.657Z,8.23
2023-05-12T13:05:45.737Z,8.43
2023-05-12T13:09:47.822Z,4.40
2023-05-12T13:13:49.998Z,4.38
2023-05-12T13:17:52.309Z,6.22
2023-05-12T13:21:54.366Z,7.60
2023-05-12T13:25:56.974Z,5.35
2023-05-12T13:29:58.999Z,5.82
2023-05-12T13:34:01.025Z,4.22
2023-05-12T13:38:03.117Z,8.07
2023-05-12T13:42:05.567Z,7.15
2023-05-12T13:46:08.330Z,5.05
2023-05-12T13:50:10.564Z,6.82
2023-05-12T13:54:12.858Z,7.78
2023-05-12T13:58:14.900Z,8.80
2023-05-12T14:02:16.895Z,5.07
2023-05-12T14:06:18.902Z,3.13
2023-05-12T14:10:20.919Z,7.78
2023-05-12T14:14:22.957Z,4.00
2023-05-12T14:18:25.865Z,8.60
2023-05-12T14:22:28.009Z,5.20
2023-05-12T14:26:30.180Z,7.07
2023-05-12T14:30:35.003Z,5.35
2023-05-12T14:34:37.076Z,6.35
2023-05-12T14:38:39.166Z,4.28
2023-05-12T14:42:42.278Z,6.88
2023-05-12T14:46:44.315Z,7.93
2023-05-12T14:50:46.283Z,7.07
2023-05-12T14:54:48.356Z,5.00
2023-05-12T14:58:50.436Z,5.00
2023-05-12T15:02:52.708Z,3.38
2023-05-12T15:06:54.791Z,5.50
2023-05-12T15:10:56.734Z,4.07
2023-05-12T15:15:04.128Z,5.18
2023-05-12T15:19:06.314Z,7.90
2023-05-12T15:23:08.338Z,4.75
2023-05-12T15:27:10.314Z,4.88
2023-05-12T15:31:12.516Z,5.35
2023-05-12T15:35:14.658Z,7.25
2023-05-12T15:39:17.039Z,3.47
2023-05-12T15:43:19.185Z,9.27
2023-05-12T15:47:21.205Z,10.82
2023-05-12T15:51:23.216Z,3.72
2023-05-12T15:55:25.449Z,8.55
2023-05-12T15:59:27.431Z,8.63
2023-05-12T16:03:29.653Z,3.95
2023-05-12T16:07:31.869Z,4.68
2023-05-12T16:11:34.374Z,4.07
2023-05-12T16:15:36.408Z,9.77
2023-05-12T16:19:38.525Z,4.25
2023-05-12T16:23:40.663Z,5.93
2023-05-12T16:27:42.652Z,3.05
2023-05-12T16:31:45.236Z,4.35
2023-05-12T16:35:47.480Z,5.45
2023-05-12T16:39:49.516Z,3.20
2023-05-12T16:43:53.336Z,6.15
2023-05-12T16:47:55.370Z,3.47
2023-05-12T16:51:57.419Z,3.85
2023-05-12T16:55:59.767Z,6.65
2023-05-12T17:00:05.480Z,6.30
2023-05-12T17:04:08.082Z,7.20
2023-05-12T17:08:10.376Z,3.13
2023-05-12T17:12:14.175Z,8.38
2023-05-12T17:16:16.640Z,4.53
2023-05-12T17:20:19.317Z,4.70
2023-05-12T17:24:21.795Z,5.38
2023-05-12T17:28:23.803Z,4.95
2023-05-12T17:32:27.036Z,2.78
2023-05-12T17:36:29.443Z,4.68
2023-05-12T17:40:31.536Z,7.97
2023-05-12T17:44:33.614Z,5.57
2023-05-12T17:48:35.686Z,4.30
2023-05-12T17:52:39.092Z,6.00
2023-05-12T17:56:41.302Z,10.27
2023-05-12T18:00:43.505Z,7.60
2023-05-12T18:04:46.142Z,7.72
2023-05-12T18:08:48.219Z,6.07
2023-05-12T18:12:51.338Z,5.90
2023-05-12T18:16:53.522Z,5.45
2023-05-12T18:20:55.921Z,5.65
2023-05-12T18:24:57.943Z,3.58
2023-05-12T18:29:02.585Z,4.30
2023-05-12T18:33:05.221Z,5.30
2023-05-12T18:37:07.554Z,8.02
2023-05-12T18:41:10.020Z,5.35
2023-05-12T18:45:12.306Z,4.68
2023-05-12T18:49:14.591Z,5.25
2023-05-12T18:53:16.660Z,4.47
2023-05-12T18:57:18.956Z,5.13
2023-05-12T19:01:21.246Z,6.65
2023-05-12T19:05:23.638Z,8.45
2023-05-12T19:09:26.093Z,5.72
2023-05-12T19:13:28.233Z,10.13
2023-05-12T19:17:30.456Z,13.05
2023-05-12T19:21:33.634Z,12.27
2023-05-12T19:25:35.753Z,19.10
2023-05-12T19:29:38.304Z,15.18
2023-05-12T19:33:40.781Z,13.25
2023-05-12T19:37:43.266Z,13.90
2023-05-12T19:41:45.486Z,16.17
2023-05-12T19:45:47.759Z,22.05
2023-05-12T19:49:50.171Z,19.08
2023-05-12T19:53:52.215Z,17.52
2023-05-12T19:57:54.354Z,29.02
2023-05-12T20:01:56.543Z,22.70
2023-05-12T20:05:58.938Z,27.30
2023-05-12T20:10:01.341Z,30.42
2023-05-12T20:14:03.394Z,24.70
2023-05-12T20:18:06.053Z,31.60
2023-05-12T20:22:08.225Z,31.33
2023-05-12T20:26:10.717Z,33.15
2023-05-12T20:30:13.038Z,25.40
2023-05-12T20:34:16.014Z,20.10
2023-05-12T20:38:18.212Z,18.40
2023-05-12T20:42:20.545Z,17.65
2023-05-12T20:46:23.098Z,21.80
2023-05-12T20:50:27.315Z,27.73
2023-05-12T20:54:29.578Z,24.35
2023-05-12T20:58:31.836Z,30.75
2023-05-12T21:02:33.927Z,19.23
2023-05-12T21:06:37.102Z,18.63
2023-05-12T21:10:40.083Z,34.55
2023-05-12T21:14:43.333Z,33.90
2023-05-12T21:18:45.630Z,29.20
2023-05-12T21:22:47.876Z,25.73
2023-05-12T21:26:50.036Z,19.45
2023-05-12T21:30:52.187Z,21.05
2023-05-12T21:34:54.574Z,18.33
2023-05-12T21:38:56.676Z,36.85
2023-05-12T21:42:58.804Z,38.25
2023-05-12T21:47:01.259Z,44.28
2023-05-12T21:51:03.853Z,39.50
2023-05-12T21:55:06.589Z,33.47
2023-05-12T21:59:09.275Z,35.42
2023-05-12T22:03:11.507Z,30.17
2023-05-12T22:07:13.650Z,31.20
2023-05-12T22:11:16.425Z,30.27
2023-05-12T22:15:18.712Z,30.17
2023-05-12T22:19:20.829Z,24.80
2023-05-12T22:23:23.294Z,23.00
2023-05-12T22:27:25.344Z,23.48
2023-05-12T22:31:27.757Z,24.60
2023-05-12T22:35:29.891Z,23.65
2023-05-12T22:39:31.974Z,23.17
2023-05-12T22:43:34.053Z,22.83
2023-05-12T22:47:36.358Z,23.42
2023-05-12T22:51:38.469Z,17.90
2023-05-12T22:55:41.502Z,22.10
2023-05-12T22:59:43.986Z,17.30
2023-05-12T23:03:46.315Z,19.42
2023-05-12T23:07:48.455Z,20.33
2023-05-12T23:11:50.925Z,17.67
2023-05-12T23:15:53.119Z,21.75
2023-05-12T23:19:56.214Z,23.00
2023-05-12T23:23:58.383Z,24.25
2023-05-12T23:28:00.554Z,23.98
2023-05-12T23:32:03.476Z,22.98
2023-05-12T23:36:06.427Z,22.42
2023-05-12T23:40:09.096Z,21.65
2023-05-12T23:44:11.740Z,21.85
2023-05-12T23:48:13.894Z,19.27
2023-05-12T23:52:16.015Z,18.08
2023-05-12T23:56:17.823Z,21.55
